sensor_id;sensor_type;location;lat;lon;timestamp;P1;durP1;ratioP1;P2;durP2;ratioP2
16075;SDS011;8142;48.242;11.644;2022-08-01T00:00:24;2.00;;;1.90;;
16075;SDS011;8142;48.242;11.644;2022-08-01T00:02:50;3.43;;;2.03;;
16075;SDS011;8142;48.242;11.644;2022-08-01T00:05:16;2.97;;;2.40;;
16075;SDS011;8142;48.242;11.644;2022-08-01T00:07:42;2.97;;;2.20;;
16075;SDS011;8142;48.242;11.644;2022-08-01T00:10:12;2.53;;;2.17;;
16075;SDS011;8142;48.242;11.644;2022-08-01T00:12:40;2.27;;;2.10;;
16075;SDS011;8142;48.242;11.644;2022-08-01T00:15:08;3.27;;;2.20;;
16075;SDS011;8142;48.242;11.644;2022-08-01T00:17:36;2.93;;;2.43;;
16075;SDS011;8142;48.242;11.644;2022-08-01T00:20:02;2.40;;;2.20;;
16075;SDS011;8142;48.242;11.644;2022-08-01T00:22:31;2.80;;;2.50;;
16075;SDS011;8142;48.242;11.644;2022-08-01T00:24:57;2.63;;;2.10;;
16075;SDS011;8142;48.242;11.644;2022-08-01T00:27:23;3.07;;;2.13;;
16075;SDS011;8142;48.242;11.644;2022-08-01T00:29:49;2.20;;;2.00;;
16075;SDS011;8142;48.242;11.644;2022-08-01T00:32:14;2.90;;;2.10;;
16075;SDS011;8142;48.242;11.644;2022-08-01T00:34:40;3.47;;;2.20;;
16075;SDS011;8142;48.242;11.644;2022-08-01T00:37:06;5.50;;;2.40;;
16075;SDS011;8142;48.242;11.644;2022-08-01T00:39:32;2.47;;;2.27;;
16075;SDS011;8142;48.242;11.644;2022-08-01T00:41:58;3.27;;;2.23;;
16075;SDS011;8142;48.242;11.644;2022-08-01T00:44:25;2.30;;;2.10;;
16075;SDS011;8142;48.242;11.644;2022-08-01T00:46:51;3.77;;;2.10;;
16075;SDS011;8142;48.242;11.644;2022-08-01T00:49:17;3.33;;;2.17;;
16075;SDS011;8142;48.242;11.644;2022-08-01T00:51:43;2.50;;;2.30;;
16075;SDS011;8142;48.242;11.644;2022-08-01T00:54:09;2.57;;;2.30;;
16075;SDS011;8142;48.242;11.644;2022-08-01T00:56:35;2.97;;;2.20;;
16075;SDS011;8142;48.242;11.644;2022-08-01T00:59:01;2.60;;;2.40;;
16075;SDS011;8142;48.242;11.644;2022-08-01T01:01:29;2.33;;;2.17;;
16075;SDS011;8142;48.242;11.644;2022-08-01T01:03:54;2.60;;;2.40;;
16075;SDS011;8142;48.242;11.644;2022-08-01T01:06:34;3.60;;;2.47;;
16075;SDS011;8142;48.242;11.644;2022-08-01T01:09:38;2.33;;;2.13;;
16075;SDS011;8142;48.242;11.644;2022-08-01T01:12:33;2.50;;;2.30;;
16075;SDS011;8142;48.242;11.644;2022-08-01T01:15:02;2.63;;;2.43;;
16075;SDS011;8142;48.242;11.644;2022-08-01T01:20:32;2.50;;;2.30;;
16075;SDS011;8142;48.242;11.644;2022-08-01T01:30:49;2.40;;;2.20;;
16075;SDS011;8142;48.242;11.644;2022-08-01T01:33:18;2.30;;;2.10;;
16075;SDS011;8142;48.242;11.644;2022-08-01T01:35:46;3.13;;;2.10;;
16075;SDS011;8142;48.242;11.644;2022-08-01T01:38:21;3.53;;;2.47;;
16075;SDS011;8142;48.242;11.644;2022-08-01T01:40:48;2.60;;;2.40;;
16075;SDS011;8142;48.242;11.644;2022-08-01T01:43:16;3.50;;;2.30;;
16075;SDS011;8142;48.242;11.644;2022-08-01T01:45:44;2.83;;;2.37;;
16075;SDS011;8142;48.242;11.644;2022-08-01T01:48:13;3.70;;;2.27;;
16075;SDS011;8142;48.242;11.644;2022-08-01T01:50:45;2.87;;;2.40;;
16075;SDS011;8142;48.242;11.644;2022-08-01T01:53:13;2.60;;;2.40;;
16075;SDS011;8142;48.242;11.644;2022-08-01T01:55:43;3.00;;;2.57;;
16075;SDS011;8142;48.242;11.644;2022-08-01T01:58:12;3.20;;;2.23;;
16075;SDS011;8142;48.242;11.644;2022-08-01T02:00:42;2.47;;;2.27;;
16075;SDS011;8142;48.242;11.644;2022-08-01T02:03:11;2.53;;;2.20;;
16075;SDS011;8142;48.242;11.644;2022-08-01T02:05:38;3.43;;;2.40;;
16075;SDS011;8142;48.242;11.644;2022-08-01T02:08:05;3.70;;;2.50;;
16075;SDS011;8142;48.242;11.644;2022-08-01T02:10:33;2.60;;;2.40;;
16075;SDS011;8142;48.242;11.644;2022-08-01T02:13:02;2.70;;;2.33;;
16075;SDS011;8142;48.242;11.644;2022-08-01T02:15:30;2.80;;;2.60;;
16075;SDS011;8142;48.242;11.644;2022-08-01T02:17:58;2.60;;;2.17;;
16075;SDS011;8142;48.242;11.644;2022-08-01T02:20:27;2.60;;;2.40;;
16075;SDS011;8142;48.242;11.644;2022-08-01T02:22:56;2.40;;;2.20;;
16075;SDS011;8142;48.242;11.644;2022-08-01T02:25:33;2.83;;;2.60;;
16075;SDS011;8142;48.242;11.644;2022-08-01T02:28:15;2.50;;;2.30;;
16075;SDS011;8142;48.242;11.644;2022-08-01T02:30:48;2.77;;;2.27;;
16075;SDS011;8142;48.242;11.644;2022-08-01T02:33:16;3.33;;;2.30;;
16075;SDS011;8142;48.242;11.644;2022-08-01T02:35:54;3.50;;;2.47;;
16075;SDS011;8142;48.242;11.644;2022-08-01T02:38:23;3.07;;;2.37;;
16075;SDS011;8142;48.242;11.644;2022-08-01T02:40:53;3.37;;;2.03;;
16075;SDS011;8142;48.242;11.644;2022-08-01T02:43:23;4.37;;;2.30;;
16075;SDS011;8142;48.242;11.644;2022-08-01T02:45:52;2.57;;;2.30;;
16075;SDS011;8142;48.242;11.644;2022-08-01T02:48:21;2.70;;;2.50;;
16075;SDS011;8142;48.242;11.644;2022-08-01T02:50:51;2.40;;;2.20;;
16075;SDS011;8142;48.242;11.644;2022-08-01T02:53:20;2.67;;;2.37;;
16075;SDS011;8142;48.242;11.644;2022-08-01T02:55:48;2.70;;;2.50;;
16075;SDS011;8142;48.242;11.644;2022-08-01T02:58:16;2.47;;;2.30;;
16075;SDS011;8142;48.242;11.644;2022-08-01T03:00:45;3.30;;;2.40;;
16075;SDS011;8142;48.242;11.644;2022-08-01T03:03:13;4.17;;;2.50;;
16075;SDS011;8142;48.242;11.644;2022-08-01T03:05:39;3.10;;;2.30;;
16075;SDS011;8142;48.242;11.644;2022-08-01T03:08:07;2.50;;;2.30;;
16075;SDS011;8142;48.242;11.644;2022-08-01T03:10:36;2.40;;;2.20;;
16075;SDS011;8142;48.242;11.644;2022-08-01T03:13:05;2.40;;;2.20;;
16075;SDS011;8142;48.242;11.644;2022-08-01T03:15:39;4.20;;;2.43;;
16075;SDS011;8142;48.242;11.644;2022-08-01T03:18:07;2.70;;;2.50;;
16075;SDS011;8142;48.242;11.644;2022-08-01T03:20:35;3.57;;;2.30;;
16075;SDS011;8142;48.242;11.644;2022-08-01T03:23:02;2.50;;;2.30;;
16075;SDS011;8142;48.242;11.644;2022-08-01T03:25:30;3.40;;;2.30;;
16075;SDS011;8142;48.242;11.644;2022-08-01T03:27:59;3.30;;;2.53;;
16075;SDS011;8142;48.242;11.644;2022-08-01T03:30:28;3.20;;;2.60;;
16075;SDS011;8142;48.242;11.644;2022-08-01T03:32:56;3.97;;;2.43;;
16075;SDS011;8142;48.242;11.644;2022-08-01T03:35:23;3.43;;;2.27;;
16075;SDS011;8142;48.242;11.644;2022-08-01T03:37:55;3.50;;;2.50;;
16075;SDS011;8142;48.242;11.644;2022-08-01T03:40:23;2.47;;;2.20;;
16075;SDS011;8142;48.242;11.644;2022-08-01T03:43:00;3.23;;;2.50;;
16075;SDS011;8142;48.242;11.644;2022-08-01T03:45:31;2.93;;;2.30;;
16075;SDS011;8142;48.242;11.644;2022-08-01T03:48:14;2.63;;;2.43;;
16075;SDS011;8142;48.242;11.644;2022-08-01T03:50:45;2.30;;;2.10;;
16075;SDS011;8142;48.242;11.644;2022-08-01T03:53:13;3.10;;;2.20;;
16075;SDS011;8142;48.242;11.644;2022-08-01T03:55:41;3.47;;;2.50;;
16075;SDS011;8142;48.242;11.644;2022-08-01T03:58:08;3.67;;;2.40;;
16075;SDS011;8142;48.242;11.644;2022-08-01T04:00:35;2.90;;;2.20;;
16075;SDS011;8142;48.242;11.644;2022-08-01T04:03:04;2.73;;;2.47;;
16075;SDS011;8142;48.242;11.644;2022-08-01T04:05:34;4.13;;;2.30;;
16075;SDS011;8142;48.242;11.644;2022-08-01T04:08:00;2.60;;;2.40;;
16075;SDS011;8142;48.242;11.644;2022-08-01T04:10:28;2.53;;;2.20;;
16075;SDS011;8142;48.242;11.644;2022-08-01T04:12:54;3.13;;;2.23;;
16075;SDS011;8142;48.242;11.644;2022-08-01T04:15:20;2.40;;;2.20;;
16075;SDS011;8142;48.242;11.644;2022-08-01T04:17:46;4.43;;;2.57;;
16075;SDS011;8142;48.242;11.644;2022-08-01T04:20:12;2.40;;;2.20;;
16075;SDS011;8142;48.242;11.644;2022-08-01T04:22:39;4.93;;;2.30;;
16075;SDS011;8142;48.242;11.644;2022-08-01T04:25:10;3.07;;;2.30;;
16075;SDS011;8142;48.242;11.644;2022-08-01T04:27:40;3.37;;;2.37;;
16075;SDS011;8142;48.242;11.644;2022-08-01T04:30:10;2.90;;;2.40;;
16075;SDS011;8142;48.242;11.644;2022-08-01T04:32:38;2.30;;;2.10;;
16075;SDS011;8142;48.242;11.644;2022-08-01T04:35:06;4.13;;;2.40;;
16075;SDS011;8142;48.242;11.644;2022-08-01T04:37:36;3.60;;;2.37;;
16075;SDS011;8142;48.242;11.644;2022-08-01T04:40:04;2.57;;;2.10;;
16075;SDS011;8142;48.242;11.644;2022-08-01T04:42:34;4.17;;;2.40;;
16075;SDS011;8142;48.242;11.644;2022-08-01T04:45:00;2.50;;;2.30;;
16075;SDS011;8142;48.242;11.644;2022-08-01T04:47:27;3.03;;;2.27;;
16075;SDS011;8142;48.242;11.644;2022-08-01T04:49:54;3.97;;;2.30;;
16075;SDS011;8142;48.242;11.644;2022-08-01T04:52:21;3.10;;;2.13;;
16075;SDS011;8142;48.242;11.644;2022-08-01T04:54:47;3.23;;;2.13;;
16075;SDS011;8142;48.242;11.644;2022-08-01T04:57:13;2.80;;;2.10;;
16075;SDS011;8142;48.242;11.644;2022-08-01T04:59:41;3.67;;;2.30;;
16075;SDS011;8142;48.242;11.644;2022-08-01T05:02:13;3.47;;;2.50;;
16075;SDS011;8142;48.242;11.644;2022-08-01T05:04:41;2.47;;;2.27;;
16075;SDS011;8142;48.242;11.644;2022-08-01T05:07:08;2.37;;;2.17;;
16075;SDS011;8142;48.242;11.644;2022-08-01T05:09:34;2.63;;;2.43;;
16075;SDS011;8142;48.242;11.644;2022-08-01T05:12:04;2.50;;;2.30;;
16075;SDS011;8142;48.242;11.644;2022-08-01T05:14:31;2.47;;;2.10;;
16075;SDS011;8142;48.242;11.644;2022-08-01T05:16:58;2.70;;;2.10;;
16075;SDS011;8142;48.242;11.644;2022-08-01T05:19:25;2.67;;;2.30;;
16075;SDS011;8142;48.242;11.644;2022-08-01T05:21:52;2.77;;;2.20;;
16075;SDS011;8142;48.242;11.644;2022-08-01T05:24:17;3.03;;;2.37;;
16075;SDS011;8142;48.242;11.644;2022-08-01T05:26:43;4.20;;;2.20;;
16075;SDS011;8142;48.242;11.644;2022-08-01T05:29:09;2.40;;;2.20;;
16075;SDS011;8142;48.242;11.644;2022-08-01T05:31:35;3.60;;;2.43;;
16075;SDS011;8142;48.242;11.644;2022-08-01T05:34:01;4.17;;;2.50;;
16075;SDS011;8142;48.242;11.644;2022-08-01T05:36:27;3.10;;;2.40;;
16075;SDS011;8142;48.242;11.644;2022-08-01T05:38:53;3.33;;;2.30;;
16075;SDS011;8142;48.242;11.644;2022-08-01T05:41:20;3.33;;;2.10;;
16075;SDS011;8142;48.242;11.644;2022-08-01T05:43:45;3.20;;;2.23;;
16075;SDS011;8142;48.242;11.644;2022-08-01T05:46:11;5.00;;;2.60;;
16075;SDS011;8142;48.242;11.644;2022-08-01T05:48:37;4.07;;;2.23;;
16075;SDS011;8142;48.242;11.644;2022-08-01T05:51:03;4.40;;;2.60;;
16075;SDS011;8142;48.242;11.644;2022-08-01T05:53:29;3.93;;;2.30;;
16075;SDS011;8142;48.242;11.644;2022-08-01T05:55:55;3.70;;;2.50;;
16075;SDS011;8142;48.242;11.644;2022-08-01T05:58:21;3.63;;;2.30;;
16075;SDS011;8142;48.242;11.644;2022-08-01T06:00:48;4.33;;;2.50;;
16075;SDS011;8142;48.242;11.644;2022-08-01T06:03:13;3.20;;;2.20;;
16075;SDS011;8142;48.242;11.644;2022-08-01T06:05:39;2.37;;;2.17;;
16075;SDS011;8142;48.242;11.644;2022-08-01T06:08:05;2.60;;;2.37;;
16075;SDS011;8142;48.242;11.644;2022-08-01T06:10:31;2.80;;;2.30;;
16075;SDS011;8142;48.242;11.644;2022-08-01T06:12:57;3.77;;;2.40;;
16075;SDS011;8142;48.242;11.644;2022-08-01T06:15:23;2.50;;;2.30;;
16075;SDS011;8142;48.242;11.644;2022-08-01T06:17:49;2.73;;;2.30;;
16075;SDS011;8142;48.242;11.644;2022-08-01T06:20:15;2.53;;;2.33;;
16075;SDS011;8142;48.242;11.644;2022-08-01T06:22:40;4.80;;;2.30;;
16075;SDS011;8142;48.242;11.644;2022-08-01T06:25:06;4.07;;;2.20;;
16075;SDS011;8142;48.242;11.644;2022-08-01T06:27:36;5.23;;;2.30;;
16075;SDS011;8142;48.242;11.644;2022-08-01T06:30:03;3.77;;;2.50;;
16075;SDS011;8142;48.242;11.644;2022-08-01T06:32:30;2.77;;;2.37;;
16075;SDS011;8142;48.242;11.644;2022-08-01T06:34:56;3.47;;;2.50;;
16075;SDS011;8142;48.242;11.644;2022-08-01T06:37:22;3.17;;;2.40;;
16075;SDS011;8142;48.242;11.644;2022-08-01T06:39:48;2.50;;;2.30;;
16075;SDS011;8142;48.242;11.644;2022-08-01T06:42:14;2.60;;;2.20;;
16075;SDS011;8142;48.242;11.644;2022-08-01T06:44:40;3.67;;;2.13;;
16075;SDS011;8142;48.242;11.644;2022-08-01T06:47:06;3.80;;;2.03;;
16075;SDS011;8142;48.242;11.644;2022-08-01T06:49:32;4.20;;;2.53;;
16075;SDS011;8142;48.242;11.644;2022-08-01T06:51:58;3.53;;;2.40;;
16075;SDS011;8142;48.242;11.644;2022-08-01T06:54:24;2.30;;;2.10;;
16075;SDS011;8142;48.242;11.644;2022-08-01T06:56:49;3.33;;;2.43;;
16075;SDS011;8142;48.242;11.644;2022-08-01T06:59:15;4.03;;;2.40;;
16075;SDS011;8142;48.242;11.644;2022-08-01T07:01:41;2.30;;;2.10;;
16075;SDS011;8142;48.242;11.644;2022-08-01T07:04:07;3.70;;;2.50;;
16075;SDS011;8142;48.242;11.644;2022-08-01T07:06:33;2.77;;;2.30;;
16075;SDS011;8142;48.242;11.644;2022-08-01T07:08:59;2.27;;;2.07;;
16075;SDS011;8142;48.242;11.644;2022-08-01T07:11:26;5.07;;;2.40;;
16075;SDS011;8142;48.242;11.644;2022-08-01T07:13:51;2.50;;;2.30;;
16075;SDS011;8142;48.242;11.644;2022-08-01T07:16:17;3.13;;;2.30;;
16075;SDS011;8142;48.242;11.644;2022-08-01T07:18:43;4.47;;;2.27;;
16075;SDS011;8142;48.242;11.644;2022-08-01T07:21:09;2.60;;;2.33;;
16075;SDS011;8142;48.242;11.644;2022-08-01T07:23:35;2.50;;;2.30;;
16075;SDS011;8142;48.242;11.644;2022-08-01T07:26:02;2.83;;;2.10;;
16075;SDS011;8142;48.242;11.644;2022-08-01T07:28:29;2.50;;;2.20;;
16075;SDS011;8142;48.242;11.644;2022-08-01T07:30:55;2.73;;;2.17;;
16075;SDS011;8142;48.242;11.644;2022-08-01T07:33:21;2.60;;;2.27;;
16075;SDS011;8142;48.242;11.644;2022-08-01T07:35:47;2.43;;;2.23;;
16075;SDS011;8142;48.242;11.644;2022-08-01T07:38:13;2.70;;;2.20;;
16075;SDS011;8142;48.242;11.644;2022-08-01T07:40:42;2.30;;;2.10;;
16075;SDS011;8142;48.242;11.644;2022-08-01T07:43:09;2.67;;;2.10;;
16075;SDS011;8142;48.242;11.644;2022-08-01T07:45:35;2.37;;;2.17;;
16075;SDS011;8142;48.242;11.644;2022-08-01T07:48:04;2.50;;;2.30;;
16075;SDS011;8142;48.242;11.644;2022-08-01T07:50:31;5.77;;;2.20;;
16075;SDS011;8142;48.242;11.644;2022-08-01T07:52:57;3.10;;;2.10;;
16075;SDS011;8142;48.242;11.644;2022-08-01T07:55:23;2.20;;;2.00;;
16075;SDS011;8142;48.242;11.644;2022-08-01T07:57:49;3.33;;;2.20;;
16075;SDS011;8142;48.242;11.644;2022-08-01T08:00:15;2.50;;;2.30;;
16075;SDS011;8142;48.242;11.644;2022-08-01T08:02:41;3.40;;;2.30;;
16075;SDS011;8142;48.242;11.644;2022-08-01T08:05:08;2.57;;;2.37;;
16075;SDS011;8142;48.242;11.644;2022-08-01T08:07:34;2.73;;;2.40;;
16075;SDS011;8142;48.242;11.644;2022-08-01T08:10:00;4.20;;;2.20;;
16075;SDS011;8142;48.242;11.644;2022-08-01T08:12:25;2.50;;;2.30;;
16075;SDS011;8142;48.242;11.644;2022-08-01T08:14:52;2.60;;;2.40;;
16075;SDS011;8142;48.242;11.644;2022-08-01T08:17:18;2.60;;;2.40;;
16075;SDS011;8142;48.242;11.644;2022-08-01T08:19:44;2.20;;;2.00;;
16075;SDS011;8142;48.242;11.644;2022-08-01T08:22:10;2.50;;;2.30;;
16075;SDS011;8142;48.242;11.644;2022-08-01T08:24:36;2.70;;;2.50;;
16075;SDS011;8142;48.242;11.644;2022-08-01T08:27:03;3.63;;;2.50;;
16075;SDS011;8142;48.242;11.644;2022-08-01T08:29:29;3.30;;;2.50;;
16075;SDS011;8142;48.242;11.644;2022-08-01T08:31:57;3.03;;;2.63;;
16075;SDS011;8142;48.242;11.644;2022-08-01T08:34:25;2.40;;;2.20;;
16075;SDS011;8142;48.242;11.644;2022-08-01T08:36:52;3.73;;;2.40;;
16075;SDS011;8142;48.242;11.644;2022-08-01T08:39:20;3.93;;;2.53;;
16075;SDS011;8142;48.242;11.644;2022-08-01T08:41:46;3.13;;;2.70;;
16075;SDS011;8142;48.242;11.644;2022-08-01T08:44:12;3.40;;;2.50;;
16075;SDS011;8142;48.242;11.644;2022-08-01T08:46:42;3.53;;;2.60;;
16075;SDS011;8142;48.242;11.644;2022-08-01T08:49:10;2.90;;;2.22;;
16075;SDS011;8142;48.242;11.644;2022-08-01T08:51:38;3.73;;;2.40;;
16075;SDS011;8142;48.242;11.644;2022-08-01T08:54:06;3.30;;;2.47;;
16075;SDS011;8142;48.242;11.644;2022-08-01T08:56:35;3.38;;;2.70;;
16075;SDS011;8142;48.242;11.644;2022-08-01T08:59:03;4.37;;;2.80;;
16075;SDS011;8142;48.242;11.644;2022-08-01T09:01:32;3.00;;;2.67;;
16075;SDS011;8142;48.242;11.644;2022-08-01T09:04:00;3.03;;;2.60;;
16075;SDS011;8142;48.242;11.644;2022-08-01T09:06:30;2.50;;;2.30;;
16075;SDS011;8142;48.242;11.644;2022-08-01T09:08:57;2.97;;;2.30;;
16075;SDS011;8142;48.242;11.644;2022-08-01T09:11:24;3.47;;;2.60;;
16075;SDS011;8142;48.242;11.644;2022-08-01T09:16:38;3.90;;;2.60;;
16075;SDS011;8142;48.242;11.644;2022-08-01T09:19:24;4.00;;;2.60;;
16075;SDS011;8142;48.242;11.644;2022-08-01T09:21:57;3.27;;;2.57;;
16075;SDS011;8142;48.242;11.644;2022-08-01T09:24:25;3.53;;;2.33;;
16075;SDS011;8142;48.242;11.644;2022-08-01T09:26:52;2.50;;;2.17;;
16075;SDS011;8142;48.242;11.644;2022-08-01T09:29:20;2.23;;;2.03;;
16075;SDS011;8142;48.242;11.644;2022-08-01T09:31:50;2.17;;;2.00;;
16075;SDS011;8142;48.242;11.644;2022-08-01T09:34:23;2.53;;;2.33;;
16075;SDS011;8142;48.242;11.644;2022-08-01T09:36:52;2.63;;;2.33;;
16075;SDS011;8142;48.242;11.644;2022-08-01T09:39:26;3.53;;;2.70;;
16075;SDS011;8142;48.242;11.644;2022-08-01T09:41:53;3.67;;;2.63;;
16075;SDS011;8142;48.242;11.644;2022-08-01T09:44:35;2.57;;;2.37;;
16075;SDS011;8142;48.242;11.644;2022-08-01T09:47:03;2.80;;;2.47;;
16075;SDS011;8142;48.242;11.644;2022-08-01T09:49:33;2.63;;;2.43;;
16075;SDS011;8142;48.242;11.644;2022-08-01T09:52:10;2.87;;;2.20;;
16075;SDS011;8142;48.242;11.644;2022-08-01T09:54:38;2.57;;;2.33;;
16075;SDS011;8142;48.242;11.644;2022-08-01T09:57:10;2.90;;;1.90;;
16075;SDS011;8142;48.242;11.644;2022-08-01T09:59:41;2.30;;;2.10;;
16075;SDS011;8142;48.242;11.644;2022-08-01T10:02:09;2.67;;;2.37;;
16075;SDS011;8142;48.242;11.644;2022-08-01T10:04:45;2.70;;;2.23;;
16075;SDS011;8142;48.242;11.644;2022-08-01T10:07:15;3.23;;;2.30;;
16075;SDS011;8142;48.242;11.644;2022-08-01T10:09:42;2.23;;;2.13;;
16075;SDS011;8142;48.242;11.644;2022-08-01T10:12:09;4.77;;;2.30;;
16075;SDS011;8142;48.242;11.644;2022-08-01T10:14:37;2.17;;;1.97;;
16075;SDS011;8142;48.242;11.644;2022-08-01T10:17:04;2.87;;;2.20;;
16075;SDS011;8142;48.242;11.644;2022-08-01T10:19:33;4.43;;;2.30;;
16075;SDS011;8142;48.242;11.644;2022-08-01T10:22:01;2.33;;;2.00;;
16075;SDS011;8142;48.242;11.644;2022-08-01T10:24:34;2.50;;;2.23;;
16075;SDS011;8142;48.242;11.644;2022-08-01T10:27:03;2.23;;;2.00;;
16075;SDS011;8142;48.242;11.644;2022-08-01T10:29:33;2.03;;;1.90;;
16075;SDS011;8142;48.242;11.644;2022-08-01T10:32:06;1.63;;;1.53;;
16075;SDS011;8142;48.242;11.644;2022-08-01T10:34:34;2.60;;;1.70;;
16075;SDS011;8142;48.242;11.644;2022-08-01T10:37:01;2.50;;;1.73;;
16075;SDS011;8142;48.242;11.644;2022-08-01T10:39:28;2.03;;;1.87;;
16075;SDS011;8142;48.242;11.644;2022-08-01T10:41:55;3.17;;;2.00;;
16075;SDS011;8142;48.242;11.644;2022-08-01T10:44:25;1.90;;;1.80;;
16075;SDS011;8142;48.242;11.644;2022-08-01T10:46:54;2.20;;;2.00;;
16075;SDS011;8142;48.242;11.644;2022-08-01T10:49:43;1.90;;;1.70;;
16075;SDS011;8142;48.242;11.644;2022-08-01T10:52:14;2.20;;;2.00;;
16075;SDS011;8142;48.242;11.644;2022-08-01T10:54:41;2.93;;;1.80;;
16075;SDS011;8142;48.242;11.644;2022-08-01T10:57:07;2.90;;;1.77;;
16075;SDS011;8142;48.242;11.644;2022-08-01T10:59:32;2.97;;;1.60;;
16075;SDS011;8142;48.242;11.644;2022-08-01T11:02:05;3.43;;;1.77;;
16075;SDS011;8142;48.242;11.644;2022-08-01T11:04:41;1.70;;;1.60;;
16075;SDS011;8142;48.242;11.644;2022-08-01T11:12:55;1.67;;;1.57;;
16075;SDS011;8142;48.242;11.644;2022-08-01T11:15:22;1.70;;;1.40;;
16075;SDS011;8142;48.242;11.644;2022-08-01T11:17:53;5.40;;;1.63;;
16075;SDS011;8142;48.242;11.644;2022-08-01T11:20:23;1.77;;;1.67;;
16075;SDS011;8142;48.242;11.644;2022-08-01T11:25:25;1.70;;;1.60;;
16075;SDS011;8142;48.242;11.644;2022-08-01T11:30:46;1.90;;;1.80;;
16075;SDS011;8142;48.242;11.644;2022-08-01T11:33:14;1.83;;;1.70;;
16075;SDS011;8142;48.242;11.644;2022-08-01T11:41:31;1.93;;;1.60;;
16075;SDS011;8142;48.242;11.644;2022-08-01T11:47:12;1.50;;;1.40;;
16075;SDS011;8142;48.242;11.644;2022-08-01T11:52:17;2.10;;;1.47;;
16075;SDS011;8142;48.242;11.644;2022-08-01T11:54:49;2.13;;;1.57;;
16075;SDS011;8142;48.242;11.644;2022-08-01T11:57:22;1.53;;;1.43;;
16075;SDS011;8142;48.242;11.644;2022-08-01T11:59:53;1.70;;;1.50;;
16075;SDS011;8142;48.242;11.644;2022-08-01T12:02:22;1.50;;;1.40;;
16075;SDS011;8142;48.242;11.644;2022-08-01T12:04:55;2.00;;;1.50;;
16075;SDS011;8142;48.242;11.644;2022-08-01T12:07:39;1.70;;;1.60;;
16075;SDS011;8142;48.242;11.644;2022-08-01T12:10:10;1.53;;;1.43;;
16075;SDS011;8142;48.242;11.644;2022-08-01T12:12:42;1.73;;;1.40;;
16075;SDS011;8142;48.242;11.644;2022-08-01T12:15:12;2.43;;;1.60;;
16075;SDS011;8142;48.242;11.644;2022-08-01T12:17:42;2.00;;;1.70;;
16075;SDS011;8142;48.242;11.644;2022-08-01T12:20:11;1.90;;;1.70;;
16075;SDS011;8142;48.242;11.644;2022-08-01T12:22:41;2.87;;;1.60;;
16075;SDS011;8142;48.242;11.644;2022-08-01T12:25:15;1.93;;;1.50;;
16075;SDS011;8142;48.242;11.644;2022-08-01T12:27:44;5.03;;;1.70;;
16075;SDS011;8142;48.242;11.644;2022-08-01T12:30:11;2.23;;;1.63;;
16075;SDS011;8142;48.242;11.644;2022-08-01T12:32:41;1.60;;;1.50;;
16075;SDS011;8142;48.242;11.644;2022-08-01T12:35:11;1.97;;;1.40;;
16075;SDS011;8142;48.242;11.644;2022-08-01T12:37:49;2.37;;;1.50;;
16075;SDS011;8142;48.242;11.644;2022-08-01T12:40:20;1.80;;;1.50;;
16075;SDS011;8142;48.242;11.644;2022-08-01T12:42:50;1.80;;;1.40;;
16075;SDS011;8142;48.242;11.644;2022-08-01T12:45:18;1.97;;;1.40;;
16075;SDS011;8142;48.242;11.644;2022-08-01T12:47:46;1.63;;;1.53;;
16075;SDS011;8142;48.242;11.644;2022-08-01T12:50:20;1.87;;;1.60;;
16075;SDS011;8142;48.242;11.644;2022-08-01T12:52:47;2.73;;;1.80;;
16075;SDS011;8142;48.242;11.644;2022-08-01T12:55:15;3.50;;;2.00;;
16075;SDS011;8142;48.242;11.644;2022-08-01T12:57:43;2.83;;;1.67;;
16075;SDS011;8142;48.242;11.644;2022-08-01T13:00:25;2.10;;;1.57;;
16075;SDS011;8142;48.242;11.644;2022-08-01T13:03:04;2.00;;;1.50;;
16075;SDS011;8142;48.242;11.644;2022-08-01T13:08:26;2.23;;;1.57;;
16075;SDS011;8142;48.242;11.644;2022-08-01T13:11:02;1.60;;;1.50;;
16075;SDS011;8142;48.242;11.644;2022-08-01T13:13:37;2.43;;;1.57;;
16075;SDS011;8142;48.242;11.644;2022-08-01T13:16:05;1.63;;;1.53;;
16075;SDS011;8142;48.242;11.644;2022-08-01T13:18:33;1.50;;;1.40;;
16075;SDS011;8142;48.242;11.644;2022-08-01T13:23:41;2.23;;;1.50;;
16075;SDS011;8142;48.242;11.644;2022-08-01T13:26:46;1.90;;;1.40;;
16075;SDS011;8142;48.242;11.644;2022-08-01T13:29:17;1.87;;;1.53;;
16075;SDS011;8142;48.242;11.644;2022-08-01T13:31:45;2.67;;;1.43;;
16075;SDS011;8142;48.242;11.644;2022-08-01T13:34:12;2.37;;;1.50;;
16075;SDS011;8142;48.242;11.644;2022-08-01T13:36:39;3.00;;;1.80;;
16075;SDS011;8142;48.242;11.644;2022-08-01T13:39:05;1.50;;;1.40;;
16075;SDS011;8142;48.242;11.644;2022-08-01T13:41:50;2.17;;;1.60;;
16075;SDS011;8142;48.242;11.644;2022-08-01T13:44:16;2.50;;;1.43;;
16075;SDS011;8142;48.242;11.644;2022-08-01T13:46:43;1.87;;;1.60;;
16075;SDS011;8142;48.242;11.644;2022-08-01T13:49:10;1.37;;;1.27;;
16075;SDS011;8142;48.242;11.644;2022-08-01T13:51:37;1.37;;;1.27;;
16075;SDS011;8142;48.242;11.644;2022-08-01T13:54:04;2.50;;;1.30;;
16075;SDS011;8142;48.242;11.644;2022-08-01T13:56:30;1.40;;;1.30;;
16075;SDS011;8142;48.242;11.644;2022-08-01T13:58:57;1.57;;;1.43;;
16075;SDS011;8142;48.242;11.644;2022-08-01T14:01:23;1.93;;;1.40;;
16075;SDS011;8142;48.242;11.644;2022-08-01T14:03:50;1.57;;;1.37;;
16075;SDS011;8142;48.242;11.644;2022-08-01T14:06:16;2.13;;;1.47;;
16075;SDS011;8142;48.242;11.644;2022-08-01T14:08:44;1.50;;;1.40;;
16075;SDS011;8142;48.242;11.644;2022-08-01T14:11:10;3.40;;;1.60;;
16075;SDS011;8142;48.242;11.644;2022-08-01T14:13:36;1.40;;;1.30;;
16075;SDS011;8142;48.242;11.644;2022-08-01T14:16:04;1.70;;;1.53;;
16075;SDS011;8142;48.242;11.644;2022-08-01T14:18:30;2.27;;;1.50;;
16075;SDS011;8142;48.242;11.644;2022-08-01T14:20:56;1.80;;;1.40;;
16075;SDS011;8142;48.242;11.644;2022-08-01T14:23:22;1.60;;;1.50;;
16075;SDS011;8142;48.242;11.644;2022-08-01T14:25:48;2.23;;;1.60;;
16075;SDS011;8142;48.242;11.644;2022-08-01T14:28:14;2.13;;;1.57;;
16075;SDS011;8142;48.242;11.644;2022-08-01T14:30:40;1.83;;;1.30;;
16075;SDS011;8142;48.242;11.644;2022-08-01T14:33:09;3.17;;;1.50;;
16075;SDS011;8142;48.242;11.644;2022-08-01T14:35:35;2.10;;;1.53;;
16075;SDS011;8142;48.242;11.644;2022-08-01T14:38:01;4.30;;;1.57;;
16075;SDS011;8142;48.242;11.644;2022-08-01T14:40:28;2.67;;;1.70;;
16075;SDS011;8142;48.242;11.644;2022-08-01T14:42:54;3.20;;;1.50;;
16075;SDS011;8142;48.242;11.644;2022-08-01T14:45:20;4.97;;;1.60;;
16075;SDS011;8142;48.242;11.644;2022-08-01T14:47:45;3.80;;;1.73;;
16075;SDS011;8142;48.242;11.644;2022-08-01T14:50:13;1.63;;;1.53;;
16075;SDS011;8142;48.242;11.644;2022-08-01T14:52:40;1.97;;;1.40;;
16075;SDS011;8142;48.242;11.644;2022-08-01T14:55:08;1.93;;;1.27;;
16075;SDS011;8142;48.242;11.644;2022-08-01T14:57:35;1.70;;;1.40;;
16075;SDS011;8142;48.242;11.644;2022-08-01T15:00:03;3.63;;;1.57;;
16075;SDS011;8142;48.242;11.644;2022-08-01T15:02:31;1.37;;;1.27;;
16075;SDS011;8142;48.242;11.644;2022-08-01T15:04:57;1.27;;;1.17;;
16075;SDS011;8142;48.242;11.644;2022-08-01T15:07:22;1.60;;;1.50;;
16075;SDS011;8142;48.242;11.644;2022-08-01T15:09:48;1.77;;;1.50;;
16075;SDS011;8142;48.242;11.644;2022-08-01T15:12:14;1.97;;;1.50;;
16075;SDS011;8142;48.242;11.644;2022-08-01T15:14:40;2.63;;;1.70;;
16075;SDS011;8142;48.242;11.644;2022-08-01T15:17:22;1.67;;;1.57;;
16075;SDS011;8142;48.242;11.644;2022-08-01T15:19:57;1.97;;;1.50;;
16075;SDS011;8142;48.242;11.644;2022-08-01T15:22:25;1.50;;;1.40;;
16075;SDS011;8142;48.242;11.644;2022-08-01T15:24:52;2.70;;;1.70;;
16075;SDS011;8142;48.242;11.644;2022-08-01T15:27:19;3.37;;;1.50;;
16075;SDS011;8142;48.242;11.644;2022-08-01T15:29:46;2.80;;;1.70;;
16075;SDS011;8142;48.242;11.644;2022-08-01T15:32:12;1.70;;;1.57;;
16075;SDS011;8142;48.242;11.644;2022-08-01T15:34:39;2.80;;;1.70;;
16075;SDS011;8142;48.242;11.644;2022-08-01T15:37:06;5.93;;;1.90;;